^^
Your Local Weather - Clay, NY Station Historical Data
Daily Summary for October 20, 2017 Units:  English    Metric   Both
« Previous Day
Next Day »
Daily Weekly Monthly Yearly Custom
  High: Low: Average:
Temperature: 67.8 °F 43.1 °F 54.2 °F
Dew Point: 47.1 °F 33.1 °F 40.3 °F
Humidity: 87% 29% 63%
Wind Speed: 3.0mph 0.0mph 0.4mph
Wind Gust: 5.0mph - -
Wind- - WNW
Pressure: 30.19 in 30.03 in -
Precipitation: 0.00 in    
Historical Graphs
 
 
Tabular Data for October 20, 2017
Time Temperature Dew Point Pressure Wind Wind Speed Wind Gust Humidity Rainfall Rate (Hourly) solar
00:02 56.4 °F 47.1 °F 30.03 in Calm     71% 0.00 in 0 W/m2
00:08 56.0 °F 46.7 °F 30.03 in Calm     71% 0.00 in 0 W/m2
00:14 55.8 °F 46.9 °F 30.03 in Calm   1.0 mph 72% 0.00 in 0 W/m2
00:19 55.7 °F 46.8 °F 30.03 in Calm     72% 0.00 in 0 W/m2
00:26 55.3 °F 46.1 °F 30.04 in Calm     71% 0.00 in 0 W/m2
00:32 54.8 °F 45.9 °F 30.04 in Calm   2.0 mph 72% 0.00 in 0 W/m2
00:38 54.6 °F 45.8 °F 30.04 in Calm   2.0 mph 72% 0.00 in 0 W/m2
00:44 54.4 °F 45.6 °F 30.04 in Calm   1.0 mph 72% 0.00 in 0 W/m2
00:50 54.5 °F 45.7 °F 30.04 in West 1.0 mph 1.0 mph 72% 0.00 in 0 W/m2
00:56 54.3 °F 45.1 °F 30.05 in Calm   3.0 mph 71% 0.00 in 0 W/m2
01:02 54.1 °F 44.9 °F 30.05 in Calm     71% 0.00 in 0 W/m2
01:08 54.0 °F 44.8 °F 30.05 in Calm   1.0 mph 71% 0.00 in 0 W/m2
01:14 53.8 °F 44.2 °F 30.05 in Calm     70% 0.00 in 0 W/m2
01:20 53.5 °F 44.0 °F 30.05 in Calm     70% 0.00 in 0 W/m2
01:26 53.2 °F 43.7 °F 30.05 in Calm   2.0 mph 70% 0.00 in 0 W/m2
01:32 53.0 °F 43.5 °F 30.05 in Calm   2.0 mph 70% 0.00 in 0 W/m2
01:38 52.7 °F 43.2 °F 30.05 in Calm   2.0 mph 70% 0.00 in 0 W/m2
01:44 52.4 °F 42.9 °F 30.05 in Calm     70% 0.00 in 0 W/m2
01:50 52.2 °F 43.1 °F 30.05 in Calm   4.0 mph 71% 0.00 in 0 W/m2
01:55 52.2 °F 42.7 °F 30.05 in Calm   4.0 mph 70% 0.00 in 0 W/m2
02:02 52.0 °F 42.5 °F 30.05 in Calm     70% 0.00 in 0 W/m2
02:06 51.9 °F 42.4 °F 30.06 in Calm     70% 0.00 in 0 W/m2
02:12 51.7 °F 42.2 °F 30.06 in Calm     70% 0.00 in 0 W/m2
02:18 51.5 °F 42.0 °F 30.05 in Calm     70% 0.00 in 0 W/m2
02:24 51.4 °F 41.9 °F 30.05 in Calm     70% 0.00 in 0 W/m2
02:30 51.0 °F 41.6 °F 30.05 in Calm     70% 0.00 in 0 W/m2
02:36 50.5 °F 41.4 °F 30.06 in Calm     71% 0.00 in 0 W/m2
02:48 49.6 °F 40.9 °F 30.06 in Calm     72% 0.00 in 0 W/m2
02:56 49.1 °F 40.8 °F 30.06 in Calm     73% 0.00 in 0 W/m2
03:02 48.5 °F 40.6 °F 30.06 in Calm     74% 0.00 in 0 W/m2
03:08 48.1 °F 40.5 °F 30.06 in Calm     75% 0.00 in 0 W/m2
03:14 47.9 °F 40.7 °F 30.06 in Calm     76% 0.00 in 0 W/m2
03:20 48.1 °F 40.9 °F 30.06 in Calm     76% 0.00 in 0 W/m2
03:26 48.1 °F 40.9 °F 30.06 in Calm     76% 0.00 in 0 W/m2
03:32 48.1 °F 40.9 °F 30.06 in Calm     76% 0.00 in 0 W/m2
03:38 47.8 °F 40.6 °F 30.07 in Calm     76% 0.00 in 0 W/m2
03:44 47.6 °F 40.4 °F 30.07 in Calm     76% 0.00 in 0 W/m2
03:50 47.3 °F 40.5 °F 30.07 in Calm     77% 0.00 in 0 W/m2
03:55 47.0 °F 40.5 °F 30.07 in Calm     78% 0.00 in 0 W/m2
04:02 46.7 °F 40.2 °F 30.07 in Calm     78% 0.00 in 0 W/m2
04:08 46.3 °F 39.8 °F 30.07 in Calm     78% 0.00 in 0 W/m2
04:14 45.9 °F 39.8 °F 30.08 in Calm     79% 0.00 in 0 W/m2
04:20 45.5 °F 39.7 °F 30.08 in Calm     80% 0.00 in 0 W/m2
04:26 45.3 °F 39.5 °F 30.08 in Calm     80% 0.00 in 0 W/m2
04:32 45.1 °F 39.6 °F 30.08 in Calm     81% 0.00 in 0 W/m2
04:38 45.1 °F 39.6 °F 30.08 in Calm     81% 0.00 in 0 W/m2
04:44 44.9 °F 39.4 °F 30.08 in Calm   1.0 mph 81% 0.00 in 0 W/m2
04:50 44.7 °F 39.5 °F 30.08 in Calm     82% 0.00 in 0 W/m2
04:56 44.9 °F 39.7 °F 30.08 in Calm     82% 0.00 in 0 W/m2
05:02 45.1 °F 39.9 °F 30.08 in Calm   1.0 mph 82% 0.00 in 0 W/m2
05:08 45.2 °F 39.7 °F 30.08 in Calm   1.0 mph 81% 0.00 in 0 W/m2
05:14 45.1 °F 39.6 °F 30.08 in Calm     81% 0.00 in 0 W/m2
05:20 45.0 °F 39.5 °F 30.09 in Calm     81% 0.00 in 0 W/m2
05:26 44.8 °F 39.3 °F 30.09 in Calm     81% 0.00 in 0 W/m2
05:32 44.6 °F 39.1 °F 30.09 in Calm     81% 0.00 in 0 W/m2
05:38 44.5 °F 39.3 °F 30.09 in Calm     82% 0.00 in 0 W/m2
05:44 44.6 °F 39.4 °F 30.09 in Calm   1.0 mph 82% 0.00 in 0 W/m2
05:50 44.7 °F 39.5 °F 30.09 in Calm     82% 0.00 in 0 W/m2
05:56 44.8 °F 39.6 °F 30.09 in Calm     82% 0.00 in 0 W/m2
06:02 45.0 °F 39.5 °F 30.10 in Calm     81% 0.00 in 0 W/m2
06:08 45.1 °F 39.6 °F 30.10 in Calm     81% 0.00 in 0 W/m2
06:14 45.1 °F 39.6 °F 30.11 in Calm     81% 0.00 in 0 W/m2
06:20 45.1 °F 39.3 °F 30.11 in Calm     80% 0.00 in 0 W/m2
06:26 45.0 °F 39.5 °F 30.11 in Calm     81% 0.00 in 0 W/m2
06:32 45.1 °F 39.6 °F 30.11 in Calm   1.0 mph 81% 0.00 in 0 W/m2
06:38 45.7 °F 39.9 °F 30.11 in Calm   2.0 mph 80% 0.00 in 0 W/m2
06:44 46.1 °F 39.9 °F 30.12 in Calm     79% 0.00 in 0 W/m2
06:50 46.2 °F 39.7 °F 30.12 in Calm   1.0 mph 78% 0.00 in 0 W/m2
06:56 46.4 °F 39.9 °F 30.12 in Calm   3.0 mph 78% 0.00 in 0 W/m2
07:02 46.3 °F 39.8 °F 30.12 in Calm     78% 0.00 in 0 W/m2
07:08 46.5 °F 40.0 °F 30.12 in Calm     78% 0.00 in 0 W/m2
07:14 46.6 °F 39.8 °F 30.12 in Calm     77% 0.00 in 0 W/m2
07:20 47.0 °F 40.5 °F 30.12 in Calm     78% 0.00 in 0 W/m2
07:26 47.6 °F 40.7 °F 30.13 in Calm   5.0 mph 77% 0.00 in 0 W/m2
07:32 47.7 °F 40.5 °F 30.13 in Calm     76% 0.00 in 7 W/m2
07:38 47.6 °F 40.4 °F 30.14 in Calm     76% 0.00 in 9 W/m2
07:44 47.9 °F 40.7 °F 30.14 in Calm   1.0 mph 76% 0.00 in 11 W/m2
07:50 48.1 °F 40.9 °F 30.14 in Calm     76% 0.00 in 14 W/m2
07:56 48.4 °F 41.2 °F 30.14 in Calm     76% 0.00 in 16 W/m2
08:02 48.6 °F 41.4 °F 30.15 in Calm     76% 0.00 in 19 W/m2
08:08 48.9 °F 41.7 °F 30.15 in Calm   1.0 mph 76% 0.00 in 25 W/m2
08:14 49.2 °F 41.6 °F 30.16 in West 1.0 mph 4.0 mph 75% 0.00 in 30 W/m2
08:20 49.4 °F 41.8 °F 30.16 in West 1.0 mph 1.0 mph 75% 0.00 in 32 W/m2
08:26 49.8 °F 41.8 °F 30.16 in West 1.0 mph 2.0 mph 74% 0.00 in 58 W/m2
08:32 50.3 °F 42.0 °F 30.16 in West 1.0 mph 1.0 mph 73% 0.00 in 77 W/m2
08:38 50.8 °F 42.5 °F 30.17 in West 1.0 mph 1.0 mph 73% 0.00 in 176 W/m2
08:46 51.6 °F 42.9 °F 30.17 in Calm   1.0 mph 72% 0.00 in 102 W/m2
08:52 52.1 °F 43.0 °F 30.17 in West 1.0 mph 1.0 mph 71% 0.00 in 130 W/m2
08:58 52.6 °F 43.5 °F 30.17 in West 1.0 mph 1.0 mph 71% 0.00 in 144 W/m2
09:04 53.2 °F 43.7 °F 30.17 in Calm   2.0 mph 70% 0.00 in 162 W/m2
09:10 53.7 °F 43.8 °F 30.17 in Calm     69% 0.00 in 214 W/m2
09:16 54.7 °F 44.0 °F 30.17 in West 1.0 mph 1.0 mph 67% 0.00 in 223 W/m2
09:22 55.2 °F 44.0 °F 30.18 in Calm   2.0 mph 66% 0.00 in 223 W/m2
09:28 55.4 °F 44.6 °F 30.18 in West 1.0 mph 2.0 mph 67% 0.00 in 255 W/m2
09:34 56.3 °F 44.7 °F 30.18 in Calm   1.0 mph 65% 0.00 in 285 W/m2
09:40 56.5 °F 43.6 °F 30.18 in Calm     62% 0.00 in 360 W/m2
09:52 57.5 °F 45.0 °F 30.19 in NW 1.0 mph 1.0 mph 63% 0.00 in 390 W/m2
09:58 57.9 °F 45.0 °F 30.19 in West 1.0 mph 1.0 mph 62% 0.00 in 406 W/m2
10:04 58.4 °F 45.0 °F 30.19 in North 1.0 mph 1.0 mph 61% 0.00 in 417 W/m2
10:10 58.9 °F 45.0 °F 30.19 in NNW 1.0 mph 1.0 mph 60% 0.00 in 432 W/m2
10:16 59.5 °F 46.0 °F 30.19 in NW 1.0 mph 1.0 mph 61% 0.00 in 445 W/m2
10:28 60.4 °F 46.9 °F 30.19 in Calm   3.0 mph 61% 0.00 in 471 W/m2
10:34 60.6 °F 46.2 °F 30.19 in NW 1.0 mph 2.0 mph 59% 0.00 in 483 W/m2
10:40 60.3 °F 44.1 °F 30.19 in NW 2.0 mph 5.0 mph 55% 0.00 in 492 W/m2
10:46 60.8 °F 44.5 °F 30.19 in NW 1.0 mph 5.0 mph 55% 0.00 in 504 W/m2
10:52 60.6 °F 46.2 °F 30.19 in WNW 1.0 mph 3.0 mph 59% 0.00 in 513 W/m2
10:58 61.1 °F 45.3 °F 30.19 in NW 1.0 mph 3.0 mph 56% 0.00 in 527 W/m2
11:04 61.8 °F 45.9 °F 30.19 in NW 1.0 mph 5.0 mph 56% 0.00 in 536 W/m2
11:10 62.2 °F 46.8 °F 30.19 in SW 1.0 mph 1.0 mph 57% 0.00 in 543 W/m2
11:16 62.4 °F 45.5 °F 30.19 in WSW 1.0 mph 1.0 mph 54% 0.00 in 555 W/m2
11:22 63.1 °F 44.7 °F 30.19 in NNW 1.0 mph 3.0 mph 51% 0.00 in 566 W/m2
11:28 63.8 °F 45.3 °F 30.19 in West 1.0 mph 3.0 mph 51% 0.00 in 575 W/m2
11:33 63.3 °F 44.9 °F 30.19 in West 1.0 mph 1.0 mph 51% 0.00 in 577 W/m2
11:40 63.2 °F 40.9 °F 30.19 in NW 1.0 mph 2.0 mph 44% 0.00 in 582 W/m2
11:46 62.9 °F 41.2 °F 30.19 in NNW 1.0 mph 3.0 mph 45% 0.00 in 591 W/m2
11:52 63.1 °F 42.0 °F 30.19 in NNW 2.0 mph 3.0 mph 46% 0.00 in 596 W/m2
12:04 63.5 °F 43.4 °F 30.19 in NW 2.0 mph 3.0 mph 48% 0.00 in 605 W/m2
12:09 63.8 °F 40.3 °F 30.19 in NW 2.0 mph 2.0 mph 42% 0.00 in 608 W/m2
12:16 63.5 °F 40.0 °F 30.18 in North 3.0 mph 5.0 mph 42% 0.00 in 612 W/m2
12:22 63.6 °F 39.5 °F 30.18 in NNW 2.0 mph 3.0 mph 41% 0.00 in 613 W/m2
12:28 64.7 °F 41.1 °F 30.18 in West 1.0 mph 3.0 mph 42% 0.00 in 619 W/m2
12:34 65.0 °F 42.5 °F 30.18 in NW 1.0 mph 4.0 mph 44% 0.00 in 617 W/m2
12:40 65.0 °F 40.1 °F 30.18 in NNW 2.0 mph 3.0 mph 40% 0.00 in 619 W/m2
12:46 64.3 °F 36.8 °F 30.17 in NW 3.0 mph 3.0 mph 36% 0.00 in 621 W/m2
12:52 65.0 °F 38.8 °F 30.17 in NW 2.0 mph 3.0 mph 38% 0.00 in 621 W/m2
12:58 64.6 °F 39.1 °F 30.17 in NW 2.0 mph 5.0 mph 39% 0.00 in 621 W/m2
13:04 64.9 °F 40.0 °F 30.17 in NNW 3.0 mph 3.0 mph 40% 0.00 in 619 W/m2
13:10 64.8 °F 36.5 °F 30.17 in West 2.0 mph 2.0 mph 35% 0.00 in 619 W/m2
13:16 64.7 °F 36.4 °F 30.17 in North 1.0 mph 3.0 mph 35% 0.00 in 615 W/m2
13:22 65.2 °F 37.6 °F 30.17 in NW 2.0 mph 2.0 mph 36% 0.00 in 612 W/m2
13:28 65.2 °F 39.6 °F 30.16 in SW 2.0 mph 3.0 mph 39% 0.00 in 608 W/m2
13:34 65.3 °F 37.6 °F 30.16 in NNW 2.0 mph 3.0 mph 36% 0.00 in 605 W/m2
13:39 65.4 °F 37.7 °F 30.16 in NW 2.0 mph 2.0 mph 36% 0.00 in 601 W/m2
13:46 66.1 °F 39.7 °F 30.16 in NW 1.0 mph 2.0 mph 38% 0.00 in 599 W/m2
13:52 65.2 °F 40.3 °F 30.16 in WSW 1.0 mph 1.0 mph 40% 0.00 in 591 W/m2
13:58 65.6 °F 39.3 °F 30.16 in WNW 2.0 mph 2.0 mph 38% 0.00 in 585 W/m2
14:04 65.8 °F 38.8 °F 30.16 in WSW 2.0 mph 3.0 mph 37% 0.00 in 578 W/m2
14:09 65.8 °F 39.5 °F 30.16 in WSW 2.0 mph 3.0 mph 38% 0.00 in 575 W/m2
14:16 66.1 °F 38.4 °F 30.16 in NW 2.0 mph 4.0 mph 36% 0.00 in 568 W/m2
14:22 65.8 °F 38.1 °F 30.16 in WSW 2.0 mph 4.0 mph 36% 0.00 in 559 W/m2
14:28 66.0 °F 37.5 °F 30.15 in SW 1.0 mph 4.0 mph 35% 0.00 in 550 W/m2
14:34 66.6 °F 40.9 °F 30.16 in NNW 1.0 mph 1.0 mph 39% 0.00 in 541 W/m2
14:40 67.0 °F 36.9 °F 30.15 in NNW 1.0 mph 4.0 mph 33% 0.00 in 531 W/m2
14:46 66.3 °F 33.9 °F 30.15 in NNW 1.0 mph 4.0 mph 30% 0.00 in 522 W/m2
14:52 66.3 °F 39.9 °F 30.15 in NNW 1.0 mph 2.0 mph 38% 0.00 in 510 W/m2
14:58 66.5 °F 34.9 °F 30.16 in NW 2.0 mph 5.0 mph 31% 0.00 in 499 W/m2
15:04 66.7 °F 38.9 °F 30.15 in NW 1.0 mph 2.0 mph 36% 0.00 in 487 W/m2
15:10 67.1 °F 39.2 °F 30.15 in WSW 1.0 mph 2.0 mph 36% 0.00 in 476 W/m2
15:16 66.7 °F 36.7 °F 30.16 in NW 1.0 mph 2.0 mph 33% 0.00 in 464 W/m2
15:22 66.6 °F 38.1 °F 30.15 in NNW 1.0 mph 3.0 mph 35% 0.00 in 452 W/m2
15:28 66.8 °F 35.2 °F 30.15 in SW 1.0 mph 4.0 mph 31% 0.00 in 438 W/m2
15:34 66.5 °F 34.1 °F 30.15 in West 1.0 mph 1.0 mph 30% 0.00 in 427 W/m2
15:40 66.9 °F 38.3 °F 30.16 in West 1.0 mph 1.0 mph 35% 0.00 in 411 W/m2
15:46 66.9 °F 33.6 °F 30.16 in NW 1.0 mph 1.0 mph 29% 0.00 in 399 W/m2
15:54 67.3 °F 38.7 °F 30.15 in WNW 1.0 mph 1.0 mph 35% 0.00 in 380 W/m2
16:00 67.8 °F 36.8 °F 30.15 in Calm   3.0 mph 32% 0.00 in 364 W/m2
16:06 67.0 °F 33.7 °F 30.15 in WNW 1.0 mph 3.0 mph 29% 0.00 in 350 W/m2
16:12 66.9 °F 33.6 °F 30.15 in WNW 1.0 mph 2.0 mph 29% 0.00 in 323 W/m2
16:18 67.0 °F 34.5 °F 30.15 in WNW 1.0 mph 2.0 mph 30% 0.00 in 313 W/m2
16:24 67.1 °F 35.4 °F 30.15 in Calm   1.0 mph 31% 0.00 in 283 W/m2
16:30 66.8 °F 35.2 °F 30.14 in Calm   3.0 mph 31% 0.00 in 281 W/m2
16:36 66.4 °F 36.4 °F 30.14 in Calm   3.0 mph 33% 0.00 in 269 W/m2
16:42 66.2 °F 34.7 °F 30.14 in Calm     31% 0.00 in 251 W/m2
16:48 66.0 °F 33.7 °F 30.14 in WNW 1.0 mph 2.0 mph 30% 0.00 in 225 W/m2
16:54 65.4 °F 33.1 °F 30.14 in WNW 1.0 mph 2.0 mph 30% 0.00 in 213 W/m2
17:00 65.1 °F 34.5 °F 30.14 in Calm     32% 0.00 in 33 W/m2
17:06 64.7 °F 34.9 °F 30.14 in Calm     33% 0.00 in 30 W/m2
17:12 64.2 °F 35.2 °F 30.14 in Calm     34% 0.00 in 28 W/m2
17:18 63.8 °F 34.1 °F 30.14 in Calm     33% 0.00 in 26 W/m2
17:24 63.4 °F 35.2 °F 30.14 in Calm     35% 0.00 in 25 W/m2
17:30 63.1 °F 35.0 °F 30.14 in Calm     35% 0.00 in 23 W/m2
17:36 62.8 °F 35.4 °F 30.14 in Calm     36% 0.00 in 21 W/m2
17:42 62.4 °F 35.1 °F 30.14 in Calm     36% 0.00 in 18 W/m2
17:48 61.9 °F 36.7 °F 30.14 in Calm     39% 0.00 in 16 W/m2
17:54 61.3 °F 37.4 °F 30.14 in Calm     41% 0.00 in 14 W/m2
18:00 60.4 °F 42.2 °F 30.14 in Calm     51% 0.00 in 11 W/m2
18:06 59.2 °F 40.0 °F 30.14 in Calm     49% 0.00 in 7 W/m2
18:12 58.4 °F 39.3 °F 30.14 in Calm     49% 0.00 in 5 W/m2
18:18 57.3 °F 40.3 °F 30.14 in Calm     53% 0.00 in 0 W/m2
18:24 56.6 °F 39.7 °F 30.14 in Calm     53% 0.00 in 0 W/m2
18:30 55.8 °F 38.9 °F 30.14 in Calm     53% 0.00 in 0 W/m2
18:35 55.1 °F 40.1 °F 30.14 in Calm     57% 0.00 in 0 W/m2
18:42 54.5 °F 40.5 °F 30.14 in Calm     59% 0.00 in 0 W/m2
18:48 54.0 °F 39.5 °F 30.14 in Calm     58% 0.00 in 0 W/m2
18:54 53.6 °F 40.5 °F 30.14 in Calm     61% 0.00 in 0 W/m2
19:00 53.1 °F 40.0 °F 30.14 in Calm     61% 0.00 in 0 W/m2
19:06 52.6 °F 40.4 °F 30.14 in Calm     63% 0.00 in 0 W/m2
19:12 52.0 °F 41.0 °F 30.14 in Calm     66% 0.00 in 0 W/m2
19:18 51.4 °F 40.0 °F 30.15 in Calm     65% 0.00 in 0 W/m2
19:24 50.8 °F 39.1 °F 30.15 in Calm     64% 0.00 in 0 W/m2
19:30 50.3 °F 39.0 °F 30.15 in Calm     65% 0.00 in 0 W/m2
19:35 49.8 °F 38.9 °F 30.15 in Calm     66% 0.00 in 0 W/m2
19:42 49.3 °F 38.8 °F 30.15 in Calm     67% 0.00 in 0 W/m2
19:48 49.1 °F 39.0 °F 30.14 in Calm     68% 0.00 in 0 W/m2
19:54 49.0 °F 39.6 °F 30.14 in Calm     70% 0.00 in 0 W/m2
20:00 48.7 °F 39.4 °F 30.14 in Calm     70% 0.00 in 0 W/m2
20:06 48.3 °F 39.0 °F 30.14 in Calm     70% 0.00 in 0 W/m2
20:12 47.9 °F 38.9 °F 30.14 in Calm     71% 0.00 in 0 W/m2
20:18 47.7 °F 39.1 °F 30.14 in Calm     72% 0.00 in 0 W/m2
20:24 47.6 °F 39.4 °F 30.14 in Calm     73% 0.00 in 0 W/m2
20:30 47.5 °F 39.3 °F 30.14 in Calm     73% 0.00 in 0 W/m2
20:36 47.3 °F 39.4 °F 30.14 in Calm     74% 0.00 in 0 W/m2
20:42 46.9 °F 39.0 °F 30.14 in Calm     74% 0.00 in 0 W/m2
20:48 46.6 °F 38.8 °F 30.14 in Calm     74% 0.00 in 0 W/m2
20:54 46.4 °F 39.2 °F 30.14 in Calm     76% 0.00 in 0 W/m2
21:00 46.3 °F 39.5 °F 30.14 in Calm     77% 0.00 in 0 W/m2
21:06 46.1 °F 39.3 °F 30.14 in Calm     77% 0.00 in 0 W/m2
21:18 45.6 °F 39.5 °F 30.14 in Calm     79% 0.00 in 0 W/m2
21:24 45.4 °F 39.6 °F 30.14 in Calm     80% 0.00 in 0 W/m2
21:30 45.4 °F 39.9 °F 30.14 in Calm     81% 0.00 in 0 W/m2
21:36 45.3 °F 39.8 °F 30.14 in Calm     81% 0.00 in 0 W/m2
21:42 45.4 °F 40.2 °F 30.14 in Calm     82% 0.00 in 0 W/m2
21:48 45.4 °F 40.2 °F 30.14 in Calm     82% 0.00 in 0 W/m2
21:54 45.3 °F 40.1 °F 30.14 in Calm     82% 0.00 in 0 W/m2
22:00 45.0 °F 39.8 °F 30.15 in Calm     82% 0.00 in 0 W/m2
22:06 44.9 °F 40.0 °F 30.15 in Calm     83% 0.00 in 0 W/m2
22:12 44.8 °F 40.0 °F 30.15 in Calm     83% 0.00 in 0 W/m2
22:18 44.5 °F 39.7 °F 30.15 in Calm     83% 0.00 in 0 W/m2
22:24 44.2 °F 39.4 °F 30.15 in Calm     83% 0.00 in 0 W/m2
22:30 44.0 °F 39.5 °F 30.15 in Calm     84% 0.00 in 0 W/m2
22:42 43.5 °F 39.0 °F 30.16 in Calm     84% 0.00 in 0 W/m2
22:48 43.4 °F 39.2 °F 30.16 in Calm     85% 0.00 in 0 W/m2
22:54 43.8 °F 39.9 °F 30.16 in Calm     86% 0.00 in 0 W/m2
23:00 44.0 °F 40.1 °F 30.16 in Calm     86% 0.00 in 0 W/m2
23:05 43.9 °F 40.0 °F 30.16 in Calm     86% 0.00 in 0 W/m2
23:22 43.7 °F 39.8 °F 30.16 in Calm     86% 0.00 in 0 W/m2
23:28 43.5 °F 39.6 °F 30.16 in Calm     86% 0.00 in 0 W/m2
23:38 43.4 °F 39.5 °F 30.16 in Calm     86% 0.00 in 0 W/m2
23:42 43.3 °F 39.4 °F 30.16 in Calm     86% 0.00 in 0 W/m2
23:46 43.2 °F 39.6 °F 30.17 in Calm     87% 0.00 in 0 W/m2
23:52 43.1 °F 39.5 °F 30.17 in Calm     87% 0.00 in 0 W/m2
23:58 43.1 °F 39.5 °F 30.17 in Calm     87% 0.00 in 0 W/m2
Country Meadow, Clay, NY, USA
Compliments of Weather Underground - 2 mb